sensor_id;sensor_type;location;lat;lon;timestamp;P1;durP1;ratioP1;P2;durP2;ratioP2
76595;SDS011;65485;45.990;18.670;2024-02-21T05:04:59;1.67;;;1.55;;
76595;SDS011;65485;45.990;18.670;2024-02-21T05:08:02;3.22;;;1.40;;
76595;SDS011;65485;45.990;18.670;2024-02-21T05:11:05;3.70;;;1.47;;
76595;SDS011;65485;45.990;18.670;2024-02-21T05:14:09;4.07;;;1.73;;
76595;SDS011;65485;45.990;18.670;2024-02-21T05:17:11;4.22;;;1.80;;
76595;SDS011;65485;45.990;18.670;2024-02-21T05:20:14;2.92;;;1.73;;
76595;SDS011;65485;45.990;18.670;2024-02-21T05:23:21;2.10;;;1.70;;
76595;SDS011;65485;45.990;18.670;2024-02-21T05:26:24;2.33;;;1.60;;
76595;SDS011;65485;45.990;18.670;2024-02-21T05:29:27;1.40;;;1.30;;
76595;SDS011;65485;45.990;18.670;2024-02-21T05:32:29;2.58;;;1.50;;
76595;SDS011;65485;45.990;18.670;2024-02-21T05:35:34;2.15;;;1.52;;
76595;SDS011;65485;45.990;18.670;2024-02-21T05:38:37;1.98;;;1.77;;
76595;SDS011;65485;45.990;18.670;2024-02-21T05:41:40;4.17;;;1.90;;
76595;SDS011;65485;45.990;18.670;2024-02-21T05:44:42;1.83;;;1.73;;
76595;SDS011;65485;45.990;18.670;2024-02-21T05:47:45;1.85;;;1.45;;
76595;SDS011;65485;45.990;18.670;2024-02-21T05:50:48;2.95;;;1.80;;
76595;SDS011;65485;45.990;18.670;2024-02-21T05:53:50;3.90;;;1.70;;
76595;SDS011;65485;45.990;18.670;2024-02-21T05:56:53;3.47;;;1.43;;
76595;SDS011;65485;45.990;18.670;2024-02-21T05:59:55;2.17;;;1.57;;
76595;SDS011;65485;45.990;18.670;2024-02-21T06:02:58;3.30;;;1.45;;
76595;SDS011;65485;45.990;18.670;2024-02-21T06:06:01;1.75;;;1.33;;
76595;SDS011;65485;45.990;18.670;2024-02-21T06:09:04;2.78;;;1.50;;
76595;SDS011;65485;45.990;18.670;2024-02-21T06:12:07;2.47;;;1.67;;
76595;SDS011;65485;45.990;18.670;2024-02-21T06:15:10;2.60;;;1.33;;
76595;SDS011;65485;45.990;18.670;2024-02-21T06:18:12;4.15;;;1.88;;
76595;SDS011;65485;45.990;18.670;2024-02-21T06:21:15;4.78;;;1.45;;
76595;SDS011;65485;45.990;18.670;2024-02-21T06:24:19;4.47;;;1.70;;
76595;SDS011;65485;45.990;18.670;2024-02-21T06:27:22;2.80;;;1.50;;
76595;SDS011;65485;45.990;18.670;2024-02-21T06:30:24;4.20;;;1.67;;
76595;SDS011;65485;45.990;18.670;2024-02-21T06:33:32;2.95;;;1.90;;
76595;SDS011;65485;45.990;18.670;2024-02-21T06:36:35;2.20;;;1.33;;
76595;SDS011;65485;45.990;18.670;2024-02-21T06:39:37;5.38;;;1.17;;
76595;SDS011;65485;45.990;18.670;2024-02-21T06:42:41;1.83;;;1.50;;
76595;SDS011;65485;45.990;18.670;2024-02-21T06:45:44;4.23;;;1.67;;
76595;SDS011;65485;45.990;18.670;2024-02-21T06:48:50;3.38;;;1.63;;
76595;SDS011;65485;45.990;18.670;2024-02-21T06:51:54;3.88;;;1.70;;
76595;SDS011;65485;45.990;18.670;2024-02-21T06:54:57;1.98;;;1.70;;
76595;SDS011;65485;45.990;18.670;2024-02-21T06:57:59;2.03;;;1.30;;
76595;SDS011;65485;45.990;18.670;2024-02-21T07:01:03;2.73;;;1.50;;
76595;SDS011;65485;45.990;18.670;2024-02-21T07:04:09;3.30;;;1.50;;
76595;SDS011;65485;45.990;18.670;2024-02-21T07:07:12;3.50;;;1.52;;
76595;SDS011;65485;45.990;18.670;2024-02-21T07:10:15;5.68;;;1.75;;
76595;SDS011;65485;45.990;18.670;2024-02-21T07:13:43;2.00;;;1.43;;
76595;SDS011;65485;45.990;18.670;2024-02-21T07:17:02;5.63;;;2.00;;
76595;SDS011;65485;45.990;18.670;2024-02-21T07:20:34;4.22;;;1.48;;
76595;SDS011;65485;45.990;18.670;2024-02-21T07:23:48;2.40;;;1.55;;
76595;SDS011;65485;45.990;18.670;2024-02-21T07:26:51;6.90;;;1.50;;
76595;SDS011;65485;45.990;18.670;2024-02-21T07:29:56;4.50;;;1.70;;
76595;SDS011;65485;45.990;18.670;2024-02-21T07:32:59;4.10;;;1.73;;
76595;SDS011;65485;45.990;18.670;2024-02-21T07:36:06;2.70;;;2.33;;
76595;SDS011;65485;45.990;18.670;2024-02-21T07:39:14;3.53;;;1.83;;
76595;SDS011;65485;45.990;18.670;2024-02-21T07:42:16;4.72;;;1.55;;
76595;SDS011;65485;45.990;18.670;2024-02-21T07:45:31;2.60;;;1.70;;
76595;SDS011;65485;45.990;18.670;2024-02-21T07:48:45;4.87;;;1.83;;
76595;SDS011;65485;45.990;18.670;2024-02-21T07:51:48;4.13;;;2.03;;
76595;SDS011;65485;45.990;18.670;2024-02-21T07:54:54;3.00;;;1.80;;
76595;SDS011;65485;45.990;18.670;2024-02-21T07:57:58;3.92;;;1.90;;
76595;SDS011;65485;45.990;18.670;2024-02-21T08:01:20;2.57;;;1.80;;
76595;SDS011;65485;45.990;18.670;2024-02-21T08:09:49;3.05;;;1.33;;
76595;SDS011;65485;45.990;18.670;2024-02-21T08:19:19;2.85;;;1.98;;
76595;SDS011;65485;45.990;18.670;2024-02-21T08:22:43;3.10;;;1.83;;
76595;SDS011;65485;45.990;18.670;2024-02-21T08:26:02;7.13;;;2.43;;
76595;SDS011;65485;45.990;18.670;2024-02-21T08:29:59;3.28;;;1.98;;
76595;SDS011;65485;45.990;18.670;2024-02-21T08:33:34;5.43;;;2.00;;
76595;SDS011;65485;45.990;18.670;2024-02-21T08:37:37;5.57;;;2.35;;
76595;SDS011;65485;45.990;18.670;2024-02-21T08:44:24;4.50;;;2.10;;
76595;SDS011;65485;45.990;18.670;2024-02-21T08:47:31;2.10;;;1.65;;
76595;SDS011;65485;45.990;18.670;2024-02-21T08:51:08;4.53;;;2.50;;
76595;SDS011;65485;45.990;18.670;2024-02-21T08:54:24;2.65;;;2.40;;
76595;SDS011;65485;45.990;18.670;2024-02-21T08:57:34;4.30;;;2.77;;
76595;SDS011;65485;45.990;18.670;2024-02-21T09:00:38;3.30;;;2.00;;
76595;SDS011;65485;45.990;18.670;2024-02-21T09:03:44;3.13;;;2.60;;
76595;SDS011;65485;45.990;18.670;2024-02-21T09:06:50;6.15;;;2.28;;
76595;SDS011;65485;45.990;18.670;2024-02-21T09:09:57;3.42;;;2.00;;
76595;SDS011;65485;45.990;18.670;2024-02-21T09:13:00;3.03;;;1.93;;
76595;SDS011;65485;45.990;18.670;2024-02-21T09:16:06;5.00;;;2.50;;
76595;SDS011;65485;45.990;18.670;2024-02-21T09:19:08;3.92;;;2.25;;
76595;SDS011;65485;45.990;18.670;2024-02-21T09:22:14;3.38;;;1.85;;
76595;SDS011;65485;45.990;18.670;2024-02-21T09:25:29;4.40;;;2.20;;
76595;SDS011;65485;45.990;18.670;2024-02-21T09:29:02;4.17;;;2.80;;
76595;SDS011;65485;45.990;18.670;2024-02-21T09:32:07;3.37;;;2.17;;
76595;SDS011;65485;45.990;18.670;2024-02-21T09:35:23;5.53;;;2.42;;
76595;SDS011;65485;45.990;18.670;2024-02-21T09:38:29;7.30;;;2.80;;
76595;SDS011;65485;45.990;18.670;2024-02-21T09:41:36;5.60;;;2.60;;
76595;SDS011;65485;45.990;18.670;2024-02-21T09:52:30;3.88;;;2.20;;
76595;SDS011;65485;45.990;18.670;2024-02-21T09:55:56;4.78;;;2.30;;
76595;SDS011;65485;45.990;18.670;2024-02-21T09:59:01;4.70;;;2.63;;
76595;SDS011;65485;45.990;18.670;2024-02-21T10:02:07;7.03;;;3.47;;
76595;SDS011;65485;45.990;18.670;2024-02-21T10:05:10;3.80;;;2.80;;
76595;SDS011;65485;45.990;18.670;2024-02-21T10:08:16;3.33;;;2.63;;
76595;SDS011;65485;45.990;18.670;2024-02-21T10:11:23;5.55;;;2.30;;
76595;SDS011;65485;45.990;18.670;2024-02-21T10:14:28;4.93;;;2.08;;
76595;SDS011;65485;45.990;18.670;2024-02-21T10:17:33;3.63;;;2.20;;
76595;SDS011;65485;45.990;18.670;2024-02-21T10:20:37;5.93;;;2.87;;
76595;SDS011;65485;45.990;18.670;2024-02-21T10:23:43;3.70;;;1.95;;
76595;SDS011;65485;45.990;18.670;2024-02-21T10:27:01;2.63;;;2.42;;
76595;SDS011;65485;45.990;18.670;2024-02-21T10:30:17;4.93;;;2.22;;
76595;SDS011;65485;45.990;18.670;2024-02-21T10:33:20;6.27;;;2.80;;
76595;SDS011;65485;45.990;18.670;2024-02-21T10:36:32;2.40;;;2.00;;
76595;SDS011;65485;45.990;18.670;2024-02-21T10:40:04;3.38;;;2.60;;
76595;SDS011;65485;45.990;18.670;2024-02-21T10:43:25;4.53;;;2.40;;
76595;SDS011;65485;45.990;18.670;2024-02-21T10:46:38;4.88;;;2.80;;
76595;SDS011;65485;45.990;18.670;2024-02-21T10:49:57;3.73;;;2.40;;
76595;SDS011;65485;45.990;18.670;2024-02-21T10:53:09;3.30;;;1.90;;
76595;SDS011;65485;45.990;18.670;2024-02-21T10:59:39;4.68;;;2.38;;
76595;SDS011;65485;45.990;18.670;2024-02-21T11:02:46;2.75;;;2.45;;
76595;SDS011;65485;45.990;18.670;2024-02-21T11:05:49;5.03;;;2.70;;
76595;SDS011;65485;45.990;18.670;2024-02-21T11:09:08;3.53;;;2.43;;
76595;SDS011;65485;45.990;18.670;2024-02-21T11:12:19;3.63;;;2.22;;
76595;SDS011;65485;45.990;18.670;2024-02-21T11:15:26;2.08;;;1.60;;
76595;SDS011;65485;45.990;18.670;2024-02-21T11:18:29;2.55;;;1.50;;
76595;SDS011;65485;45.990;18.670;2024-02-21T11:21:33;4.97;;;1.67;;
76595;SDS011;65485;45.990;18.670;2024-02-21T11:24:38;4.37;;;1.80;;
76595;SDS011;65485;45.990;18.670;2024-02-21T11:31:39;3.88;;;1.98;;
76595;SDS011;65485;45.990;18.670;2024-02-21T11:35:00;3.33;;;1.90;;
76595;SDS011;65485;45.990;18.670;2024-02-21T11:38:11;4.33;;;1.67;;
76595;SDS011;65485;45.990;18.670;2024-02-21T11:41:18;3.03;;;1.80;;
76595;SDS011;65485;45.990;18.670;2024-02-21T11:44:23;3.30;;;1.67;;
76595;SDS011;65485;45.990;18.670;2024-02-21T11:47:27;5.00;;;1.85;;
76595;SDS011;65485;45.990;18.670;2024-02-21T11:50:30;3.20;;;1.80;;
76595;SDS011;65485;45.990;18.670;2024-02-21T11:53:33;3.03;;;1.63;;
76595;SDS011;65485;45.990;18.670;2024-02-21T11:56:44;3.37;;;1.93;;
76595;SDS011;65485;45.990;18.670;2024-02-21T11:59:47;2.75;;;1.40;;
76595;SDS011;65485;45.990;18.670;2024-02-21T12:02:53;2.65;;;1.85;;
76595;SDS011;65485;45.990;18.670;2024-02-21T12:06:03;2.78;;;1.60;;
76595;SDS011;65485;45.990;18.670;2024-02-21T12:09:15;1.63;;;1.47;;
76595;SDS011;65485;45.990;18.670;2024-02-21T12:12:19;2.47;;;1.50;;
76595;SDS011;65485;45.990;18.670;2024-02-21T12:15:23;2.15;;;1.60;;
76595;SDS011;65485;45.990;18.670;2024-02-21T12:18:25;3.40;;;1.80;;
76595;SDS011;65485;45.990;18.670;2024-02-21T12:21:31;2.75;;;1.65;;
76595;SDS011;65485;45.990;18.670;2024-02-21T12:24:37;4.53;;;2.20;;
76595;SDS011;65485;45.990;18.670;2024-02-21T12:27:46;3.13;;;1.77;;
76595;SDS011;65485;45.990;18.670;2024-02-21T12:31:17;3.63;;;1.83;;
76595;SDS011;65485;45.990;18.670;2024-02-21T12:34:20;1.65;;;1.55;;
76595;SDS011;65485;45.990;18.670;2024-02-21T12:37:40;4.90;;;1.70;;
76595;SDS011;65485;45.990;18.670;2024-02-21T12:40:44;3.83;;;1.40;;
76595;SDS011;65485;45.990;18.670;2024-02-21T12:43:47;3.97;;;1.50;;
76595;SDS011;65485;45.990;18.670;2024-02-21T12:46:53;1.52;;;1.25;;
76595;SDS011;65485;45.990;18.670;2024-02-21T12:50:34;3.15;;;1.42;;
76595;SDS011;65485;45.990;18.670;2024-02-21T12:53:39;2.63;;;1.30;;
76595;SDS011;65485;45.990;18.670;2024-02-21T12:57:00;1.50;;;1.40;;
76595;SDS011;65485;45.990;18.670;2024-02-21T13:00:14;1.50;;;1.13;;
76595;SDS011;65485;45.990;18.670;2024-02-21T13:03:25;2.53;;;1.10;;
76595;SDS011;65485;45.990;18.670;2024-02-21T13:06:43;1.70;;;1.10;;
76595;SDS011;65485;45.990;18.670;2024-02-21T13:09:47;2.00;;;1.45;;
76595;SDS011;65485;45.990;18.670;2024-02-21T13:12:58;3.47;;;1.40;;
76595;SDS011;65485;45.990;18.670;2024-02-21T13:16:10;3.17;;;1.20;;
76595;SDS011;65485;45.990;18.670;2024-02-21T13:19:26;2.78;;;1.40;;
76595;SDS011;65485;45.990;18.670;2024-02-21T13:22:46;2.65;;;1.27;;
76595;SDS011;65485;45.990;18.670;2024-02-21T13:25:53;1.40;;;1.15;;
76595;SDS011;65485;45.990;18.670;2024-02-21T13:28:56;3.70;;;1.67;;
76595;SDS011;65485;45.990;18.670;2024-02-21T13:31:59;1.10;;;1.00;;
76595;SDS011;65485;45.990;18.670;2024-02-21T13:35:02;2.90;;;1.13;;
76595;SDS011;65485;45.990;18.670;2024-02-21T13:38:08;1.73;;;0.70;;
76595;SDS011;65485;45.990;18.670;2024-02-21T13:41:18;5.55;;;1.35;;
76595;SDS011;65485;45.990;18.670;2024-02-21T13:44:20;2.33;;;1.33;;
76595;SDS011;65485;45.990;18.670;2024-02-21T13:47:30;2.90;;;1.10;;
76595;SDS011;65485;45.990;18.670;2024-02-21T13:50:32;2.80;;;1.00;;
76595;SDS011;65485;45.990;18.670;2024-02-21T13:53:57;2.83;;;1.38;;
76595;SDS011;65485;45.990;18.670;2024-02-21T13:57:09;4.50;;;1.30;;
76595;SDS011;65485;45.990;18.670;2024-02-21T14:00:12;1.33;;;1.00;;
76595;SDS011;65485;45.990;18.670;2024-02-21T14:03:15;3.97;;;1.33;;
76595;SDS011;65485;45.990;18.670;2024-02-21T14:06:36;2.35;;;1.02;;
76595;SDS011;65485;45.990;18.670;2024-02-21T14:09:45;2.25;;;1.00;;
76595;SDS011;65485;45.990;18.670;2024-02-21T14:12:49;2.08;;;1.20;;
76595;SDS011;65485;45.990;18.670;2024-02-21T14:19:30;2.23;;;1.10;;
76595;SDS011;65485;45.990;18.670;2024-02-21T14:22:33;2.35;;;1.10;;
76595;SDS011;65485;45.990;18.670;2024-02-21T14:25:36;4.40;;;1.27;;
76595;SDS011;65485;45.990;18.670;2024-02-21T14:28:41;2.17;;;1.10;;
76595;SDS011;65485;45.990;18.670;2024-02-21T14:31:44;2.90;;;1.23;;
76595;SDS011;65485;45.990;18.670;2024-02-21T14:34:47;2.27;;;1.03;;
76595;SDS011;65485;45.990;18.670;2024-02-21T14:37:49;1.95;;;0.93;;
76595;SDS011;65485;45.990;18.670;2024-02-21T14:40:52;2.20;;;0.77;;
76595;SDS011;65485;45.990;18.670;2024-02-21T14:43:55;3.70;;;1.08;;
76595;SDS011;65485;45.990;18.670;2024-02-21T14:47:06;1.40;;;1.30;;
76595;SDS011;65485;45.990;18.670;2024-02-21T14:50:16;4.30;;;1.40;;
76595;SDS011;65485;45.990;18.670;2024-02-21T14:53:19;1.25;;;0.70;;
76595;SDS011;65485;45.990;18.670;2024-02-21T14:56:25;1.02;;;0.80;;
76595;SDS011;65485;45.990;18.670;2024-02-21T14:59:28;1.90;;;1.30;;
76595;SDS011;65485;45.990;18.670;2024-02-21T15:02:36;2.87;;;0.97;;
76595;SDS011;65485;45.990;18.670;2024-02-21T15:05:39;3.07;;;1.20;;
76595;SDS011;65485;45.990;18.670;2024-02-21T15:08:42;1.20;;;1.10;;
76595;SDS011;65485;45.990;18.670;2024-02-21T15:11:45;1.35;;;1.15;;
76595;SDS011;65485;45.990;18.670;2024-02-21T15:14:47;2.22;;;1.10;;
76595;SDS011;65485;45.990;18.670;2024-02-21T15:17:50;2.00;;;1.23;;
76595;SDS011;65485;45.990;18.670;2024-02-21T15:20:53;2.67;;;1.53;;
76595;SDS011;65485;45.990;18.670;2024-02-21T15:23:55;2.90;;;1.13;;
76595;SDS011;65485;45.990;18.670;2024-02-21T15:27:03;4.10;;;1.45;;
76595;SDS011;65485;45.990;18.670;2024-02-21T15:30:06;1.30;;;0.82;;
76595;SDS011;65485;45.990;18.670;2024-02-21T15:33:09;4.07;;;1.13;;
76595;SDS011;65485;45.990;18.670;2024-02-21T15:36:12;2.73;;;1.60;;
76595;SDS011;65485;45.990;18.670;2024-02-21T15:39:15;2.72;;;2.17;;
76595;SDS011;65485;45.990;18.670;2024-02-21T15:42:17;1.75;;;1.40;;
76595;SDS011;65485;45.990;18.670;2024-02-21T15:45:20;2.30;;;0.98;;
76595;SDS011;65485;45.990;18.670;2024-02-21T15:48:23;1.83;;;0.90;;
76595;SDS011;65485;45.990;18.670;2024-02-21T15:51:27;3.13;;;1.30;;
76595;SDS011;65485;45.990;18.670;2024-02-21T15:54:32;1.35;;;1.00;;
76595;SDS011;65485;45.990;18.670;2024-02-21T15:57:35;1.92;;;0.85;;
76595;SDS011;65485;45.990;18.670;2024-02-21T16:00:37;1.95;;;0.77;;
76595;SDS011;65485;45.990;18.670;2024-02-21T16:03:40;0.90;;;0.90;;
76595;SDS011;65485;45.990;18.670;2024-02-21T16:06:44;1.10;;;1.00;;
76595;SDS011;65485;45.990;18.670;2024-02-21T16:09:53;1.48;;;1.38;;
76595;SDS011;65485;45.990;18.670;2024-02-21T16:12:56;2.33;;;1.00;;
76595;SDS011;65485;45.990;18.670;2024-02-21T16:15:59;1.23;;;0.95;;
76595;SDS011;65485;45.990;18.670;2024-02-21T16:19:02;1.57;;;1.17;;
76595;SDS011;65485;45.990;18.670;2024-02-21T16:22:07;3.13;;;1.80;;
76595;SDS011;65485;45.990;18.670;2024-02-21T16:25:11;2.67;;;2.08;;
76595;SDS011;65485;45.990;18.670;2024-02-21T16:28:14;4.68;;;2.10;;
76595;SDS011;65485;45.990;18.670;2024-02-21T16:31:16;5.05;;;2.55;;
76595;SDS011;65485;45.990;18.670;2024-02-21T16:34:19;10.70;;;5.33;;
76595;SDS011;65485;45.990;18.670;2024-02-21T16:37:22;12.20;;;5.37;;
76595;SDS011;65485;45.990;18.670;2024-02-21T16:40:25;8.98;;;3.90;;
76595;SDS011;65485;45.990;18.670;2024-02-21T16:43:28;4.93;;;3.22;;
76595;SDS011;65485;45.990;18.670;2024-02-21T16:46:31;10.70;;;5.45;;
76595;SDS011;65485;45.990;18.670;2024-02-21T16:49:34;10.57;;;5.33;;
76595;SDS011;65485;45.990;18.670;2024-02-21T16:52:39;7.90;;;4.50;;
76595;SDS011;65485;45.990;18.670;2024-02-21T16:55:42;4.53;;;3.05;;
76595;SDS011;65485;45.990;18.670;2024-02-21T16:58:45;9.27;;;3.65;;
76595;SDS011;65485;45.990;18.670;2024-02-21T17:01:48;10.07;;;4.15;;
76595;SDS011;65485;45.990;18.670;2024-02-21T17:04:54;7.47;;;3.40;;
76595;SDS011;65485;45.990;18.670;2024-02-21T17:07:57;3.43;;;2.90;;
76595;SDS011;65485;45.990;18.670;2024-02-21T17:11:00;4.85;;;2.40;;
76595;SDS011;65485;45.990;18.670;2024-02-21T17:14:03;5.70;;;2.45;;
76595;SDS011;65485;45.990;18.670;2024-02-21T17:17:06;3.92;;;2.85;;
76595;SDS011;65485;45.990;18.670;2024-02-21T17:20:09;10.10;;;4.33;;
76595;SDS011;65485;45.990;18.670;2024-02-21T17:23:12;4.43;;;3.00;;
76595;SDS011;65485;45.990;18.670;2024-02-21T17:26:14;3.15;;;2.47;;
76595;SDS011;65485;45.990;18.670;2024-02-21T17:29:17;5.53;;;3.45;;
76595;SDS011;65485;45.990;18.670;2024-02-21T17:32:20;6.28;;;4.57;;
76595;SDS011;65485;45.990;18.670;2024-02-21T17:35:22;6.43;;;3.97;;
76595;SDS011;65485;45.990;18.670;2024-02-21T17:38:26;4.73;;;3.17;;
76595;SDS011;65485;45.990;18.670;2024-02-21T17:41:32;5.85;;;3.40;;
76595;SDS011;65485;45.990;18.670;2024-02-21T17:44:34;5.95;;;3.35;;
76595;SDS011;65485;45.990;18.670;2024-02-21T17:47:41;7.57;;;4.00;;
76595;SDS011;65485;45.990;18.670;2024-02-21T17:50:44;8.93;;;4.90;;
76595;SDS011;65485;45.990;18.670;2024-02-21T17:53:46;7.70;;;3.73;;
76595;SDS011;65485;45.990;18.670;2024-02-21T17:56:49;10.05;;;5.20;;
76595;SDS011;65485;45.990;18.670;2024-02-21T17:59:52;9.93;;;5.53;;
76595;SDS011;65485;45.990;18.670;2024-02-21T18:02:55;9.15;;;4.95;;
76595;SDS011;65485;45.990;18.670;2024-02-21T18:05:59;24.27;;;12.77;;
76595;SDS011;65485;45.990;18.670;2024-02-21T18:09:06;21.90;;;13.37;;
76595;SDS011;65485;45.990;18.670;2024-02-21T18:12:09;20.15;;;11.40;;
76595;SDS011;65485;45.990;18.670;2024-02-21T18:15:11;29.15;;;18.33;;
76595;SDS011;65485;45.990;18.670;2024-02-21T18:18:14;12.63;;;7.25;;
76595;SDS011;65485;45.990;18.670;2024-02-21T18:21:17;20.20;;;11.70;;
76595;SDS011;65485;45.990;18.670;2024-02-21T18:24:19;14.83;;;9.47;;
76595;SDS011;65485;45.990;18.670;2024-02-21T18:27:22;6.47;;;4.72;;
76595;SDS011;65485;45.990;18.670;2024-02-21T18:30:26;4.30;;;3.10;;
76595;SDS011;65485;45.990;18.670;2024-02-21T18:33:28;6.20;;;3.78;;
76595;SDS011;65485;45.990;18.670;2024-02-21T18:36:31;10.37;;;5.20;;
76595;SDS011;65485;45.990;18.670;2024-02-21T18:39:34;8.43;;;4.93;;
76595;SDS011;65485;45.990;18.670;2024-02-21T18:42:37;10.68;;;5.38;;
76595;SDS011;65485;45.990;18.670;2024-02-21T18:45:41;13.27;;;5.82;;
76595;SDS011;65485;45.990;18.670;2024-02-21T18:48:44;8.55;;;5.60;;
76595;SDS011;65485;45.990;18.670;2024-02-21T18:51:49;6.73;;;5.63;;
76595;SDS011;65485;45.990;18.670;2024-02-21T18:54:52;8.17;;;5.80;;
76595;SDS011;65485;45.990;18.670;2024-02-21T18:57:55;10.60;;;7.50;;
76595;SDS011;65485;45.990;18.670;2024-02-21T19:00:57;11.07;;;8.32;;
76595;SDS011;65485;45.990;18.670;2024-02-21T19:04:01;11.65;;;7.78;;
76595;SDS011;65485;45.990;18.670;2024-02-21T19:07:03;13.20;;;8.23;;
76595;SDS011;65485;45.990;18.670;2024-02-21T19:10:06;12.20;;;7.60;;
76595;SDS011;65485;45.990;18.670;2024-02-21T19:13:09;17.42;;;8.43;;
